Apple Springs, Texas
Current Conditions -  °F | °C
As of 2:53 AM on Saturday 20 Dec 2014 (Local Time) from KLFK Reporting Station
Haze Haze  
Wind Chill: 50°   Ceiling: 600
Heat Index: 50°   Visibility: 6mi
Dew Point: 46°   Wind: 5mph
Humidity: 86%   Direction: 20°NNE
Pressure: 30.17"   Gusts: NA
Location:  31.22°N, 94.97°W
Report Text: KLFK 200853Z AUTO 02004KT 6SM BR OVC006 10/08 A3017 RMK AO2 SLP214 T01000078 53000
Loading
Personal Weather Stations






























Interactive Weather Map New forecast layout! Learn more

10-Day Weather Forecast

Advertisements
Track Severe Weather on mobile